METAR Data
IDs: Format: Raw Decoded Include TAF

Data at: 1523 UTC 12 Dec 2018

METAR for:KJAX (Jacksonville Intl, FL, US)
Text:KJAX 121456Z 36004KT 10SM BKN250 09/02 A3033 RMK AO2 SLP270 T00890022 51019
Temperature: 8.9°C ( 48°F)
Dewpoint: 2.2°C ( 36°F) [RH = 63%]
Pressure (altimeter):30.33 inches Hg (1027.2 mb) [Sea level pressure: 1027.0 mb]
Winds:from the N (360 degrees) at 5 MPH (4 knots; 2.1 m/s)
Visibility:10 or more sm (16+ km)
Ceiling:25000 feet AGL
Clouds: broken clouds at 25000 feet AGL

METAR for:KCRG (Jacksonville/Executi, FL, US)
Text:KCRG 121453Z VRB03KT 10SM CLR 09/03 A3034 RMK AO2 SLP273 T00940028 51017
Temperature: 9.4°C ( 49°F)
Dewpoint: 2.8°C ( 37°F) [RH = 63%]
Pressure (altimeter):30.34 inches Hg (1027.5 mb) [Sea level pressure: 1027.3 mb]
Winds:variable direction winds at 3 MPH (3 knots; 1.5 m/s)
Visibility:10 or more sm (16+ km)
Ceiling:at least 12,000 feet AGL
Clouds:sky clear below 12,000 feet AGL

METAR for:KNIP (Jacksonville (NAS), FL, US)
Text:KNIP 121453Z VRB03KT 10SM BKN250 08/04 A3034 RMK AO2 SLP270 T00830039 51019
Temperature: 8.3°C ( 47°F)
Dewpoint: 3.9°C ( 39°F) [RH = 74%]
Pressure (altimeter):30.34 inches Hg (1027.5 mb) [Sea level pressure: 1027.0 mb]
Winds:variable direction winds at 3 MPH (3 knots; 1.5 m/s)
Visibility:10 or more sm (16+ km)
Ceiling:25000 feet AGL
Clouds: broken clouds at 25000 feet AGL

METAR for:KNRB (Mayport (NS), FL, US)
Text:KNRB 121352Z 32003KT 10SM SCT250 08/04 A3032 RMK AO2 SLP268 T00780039 $
Temperature: 7.8°C ( 46°F)
Dewpoint: 3.9°C ( 39°F) [RH = 76%]
Pressure (altimeter):30.32 inches Hg (1026.8 mb) [Sea level pressure: 1026.8 mb]
Winds:from the NW (320 degrees) at 3 MPH (3 knots; 1.5 m/s)
Visibility:10 or more sm (16+ km)
Ceiling:at least 12,000 feet AGL
Clouds: scattered clouds at 25000 feet AGL
QC Flag:SOME DATA ABOVE MAY BE INACCURATE!!!"$" is an indication the sensor requires maintenance.

METAR for:KFHB (Fernandina Beach Mun, FL, US)
Text:KFHB 121515Z AUTO 02006KT 10SM CLR 10/02 A3033 RMK AO2 T01020024
Temperature: 10.2°C ( 50°F)
Dewpoint: 2.4°C ( 36°F) [RH = 58%]
Pressure (altimeter):30.33 inches Hg (1027.2 mb)
Winds:from the NNE (20 degrees) at 7 MPH (6 knots; 3.1 m/s)
Visibility:10 or more sm (16+ km)
Ceiling:at least 12,000 feet AGL
Clouds:sky clear below 12,000 feet AGL
QC Flag:automated observation with no human augmentation

METAR for:KVQQ (Jacksonville/Cecil A, FL, US)
Text:KVQQ 121450Z 00000KT 10SM CLR 10/06 A3034
Temperature: 10.0°C ( 50°F)
Dewpoint: 6.0°C ( 43°F) [RH = 76%]
Pressure (altimeter):30.34 inches Hg (1027.5 mb)
Winds:calm
Visibility:10 or more sm (16+ km)
Ceiling:at least 12,000 feet AGL
Clouds:sky clear below 12,000 feet AGL